Whispering Oaks, Illinois
Current Conditions -  °F | °C
As of 8:47 AM on Friday 24 Oct 2014 (Local Time) from KPIA Reporting Station
Moderate Fog Moderate Fog  
Wind Chill: 52°   Ceiling: 200
Heat Index: 52°   Visibility: 0.25mi
Dew Point: 49°   Wind: 0mph
Humidity: 89%   Direction: NA
Pressure: 30.1"   Gusts: NA
Location:  40.5996°N, 89.5548°W
Report Text: KPIA 241347Z 00000KT 1/4SM R13/0800V1000FT FG VV002 11/09 A3010 RMK AO2 T01110094
Loading
Personal Weather Stations






























Interactive Weather Map
Tropical Storm Tracking
New forecast layout! Learn more

10-Day Weather Forecast

Advertisements
Track Severe Weather on mobile